sensor_id;sensor_type;location;lat;lon;timestamp;P1;durP1;ratioP1;P2;durP2;ratioP2
30458;SDS011;17254;50.976;7.034;2023-04-28T00:00:01;8.40;;;5.38;;
30458;SDS011;17254;50.976;7.034;2023-04-28T00:00:10;9.10;;;5.54;;
30458;SDS011;17254;50.976;7.034;2023-04-28T00:00:17;8.80;;;5.63;;
30458;SDS011;17254;50.976;7.034;2023-04-28T00:00:23;9.23;;;5.63;;
30458;SDS011;17254;50.976;7.034;2023-04-28T00:00:29;9.17;;;5.50;;
30458;SDS011;17254;50.976;7.034;2023-04-28T00:00:35;8.98;;;5.42;;
30458;SDS011;17254;50.976;7.034;2023-04-28T00:00:41;9.43;;;5.28;;
30458;SDS011;17254;50.976;7.034;2023-04-28T00:00:47;9.35;;;5.20;;
30458;SDS011;17254;50.976;7.034;2023-04-28T00:00:53;8.80;;;5.25;;
30458;SDS011;17254;50.976;7.034;2023-04-28T00:00:59;8.82;;;5.35;;
30458;SDS011;17254;50.976;7.034;2023-04-28T00:01:05;8.60;;;5.53;;
30458;SDS011;17254;50.976;7.034;2023-04-28T00:01:11;7.77;;;5.63;;
30458;SDS011;17254;50.976;7.034;2023-04-28T00:01:17;7.45;;;5.80;;
30458;SDS011;17254;50.976;7.034;2023-04-28T00:01:23;7.68;;;5.68;;
30458;SDS011;17254;50.976;7.034;2023-04-28T00:01:29;7.88;;;5.72;;
30458;SDS011;17254;50.976;7.034;2023-04-28T00:01:34;9.10;;;5.72;;
30458;SDS011;17254;50.976;7.034;2023-04-28T00:01:40;9.55;;;5.88;;
30458;SDS011;17254;50.976;7.034;2023-04-28T00:01:46;9.57;;;5.97;;
30458;SDS011;17254;50.976;7.034;2023-04-28T00:01:53;9.10;;;6.03;;
30458;SDS011;17254;50.976;7.034;2023-04-28T00:01:59;9.27;;;5.97;;
30458;SDS011;17254;50.976;7.034;2023-04-28T00:02:05;9.15;;;5.80;;
30458;SDS011;17254;50.976;7.034;2023-04-28T00:02:11;9.40;;;5.63;;
30458;SDS011;17254;50.976;7.034;2023-04-28T00:02:17;9.60;;;5.43;;
30458;SDS011;17254;50.976;7.034;2023-04-28T00:02:23;9.32;;;5.47;;
30458;SDS011;17254;50.976;7.034;2023-04-28T00:02:31;9.50;;;5.48;;
30458;SDS011;17254;50.976;7.034;2023-04-28T00:02:38;8.92;;;5.64;;
30458;SDS011;17254;50.976;7.034;2023-04-28T00:02:44;8.40;;;5.78;;
30458;SDS011;17254;50.976;7.034;2023-04-28T00:02:52;8.55;;;5.70;;
30458;SDS011;17254;50.976;7.034;2023-04-28T00:02:58;8.87;;;5.80;;
30458;SDS011;17254;50.976;7.034;2023-04-28T00:03:04;8.63;;;5.88;;
30458;SDS011;17254;50.976;7.034;2023-04-28T00:03:09;8.43;;;5.95;;
30458;SDS011;17254;50.976;7.034;2023-04-28T00:03:15;8.80;;;5.90;;
30458;SDS011;17254;50.976;7.034;2023-04-28T00:03:22;8.80;;;5.85;;
30458;SDS011;17254;50.976;7.034;2023-04-28T00:03:27;8.50;;;5.80;;
30458;SDS011;17254;50.976;7.034;2023-04-28T00:03:33;8.07;;;5.32;;
30458;SDS011;17254;50.976;7.034;2023-04-28T00:03:39;8.00;;;5.23;;
30458;SDS011;17254;50.976;7.034;2023-04-28T00:03:45;7.57;;;5.30;;
30458;SDS011;17254;50.976;7.034;2023-04-28T00:03:52;7.74;;;5.36;;
30458;SDS011;17254;50.976;7.034;2023-04-28T00:04:00;7.80;;;5.43;;
30458;SDS011;17254;50.976;7.034;2023-04-28T00:04:06;7.90;;;5.53;;
30458;SDS011;17254;50.976;7.034;2023-04-28T00:04:12;8.20;;;5.40;;
30458;SDS011;17254;50.976;7.034;2023-04-28T00:04:18;8.32;;;5.47;;
30458;SDS011;17254;50.976;7.034;2023-04-28T00:04:24;7.97;;;5.63;;
30458;SDS011;17254;50.976;7.034;2023-04-28T00:04:30;8.43;;;5.55;;
30458;SDS011;17254;50.976;7.034;2023-04-28T00:04:36;8.07;;;5.60;;
30458;SDS011;17254;50.976;7.034;2023-04-28T00:04:42;7.68;;;5.47;;
30458;SDS011;17254;50.976;7.034;2023-04-28T00:04:48;8.57;;;5.73;;
30458;SDS011;17254;50.976;7.034;2023-04-28T00:04:54;8.55;;;5.68;;
30458;SDS011;17254;50.976;7.034;2023-04-28T00:05:00;8.68;;;5.68;;
30458;SDS011;17254;50.976;7.034;2023-04-28T00:05:06;8.53;;;5.53;;
30458;SDS011;17254;50.976;7.034;2023-04-28T00:05:13;8.94;;;5.68;;
30458;SDS011;17254;50.976;7.034;2023-04-28T00:05:19;8.93;;;5.53;;
30458;SDS011;17254;50.976;7.034;2023-04-28T00:05:27;9.12;;;5.67;;
30458;SDS011;17254;50.976;7.034;2023-04-28T00:05:33;9.88;;;5.95;;
30458;SDS011;17254;50.976;7.034;2023-04-28T00:05:38;10.25;;;6.07;;
30458;SDS011;17254;50.976;7.034;2023-04-28T00:05:45;9.52;;;6.22;;
30458;SDS011;17254;50.976;7.034;2023-04-28T00:05:51;9.03;;;6.17;;
30458;SDS011;17254;50.976;7.034;2023-04-28T00:05:57;8.23;;;6.05;;
30458;SDS011;17254;50.976;7.034;2023-04-28T00:06:03;7.72;;;5.97;;
30458;SDS011;17254;50.976;7.034;2023-04-28T00:06:10;7.95;;;5.88;;
30458;SDS011;17254;50.976;7.034;2023-04-28T00:06:16;7.80;;;5.30;;
30458;SDS011;17254;50.976;7.034;2023-04-28T00:06:22;8.33;;;5.50;;
30458;SDS011;17254;50.976;7.034;2023-04-28T00:06:29;9.27;;;5.65;;
30458;SDS011;17254;50.976;7.034;2023-04-28T00:06:35;9.24;;;5.70;;
30458;SDS011;17254;50.976;7.034;2023-04-28T00:06:41;9.65;;;5.65;;
30458;SDS011;17254;50.976;7.034;2023-04-28T00:06:48;9.70;;;5.84;;
30458;SDS011;17254;50.976;7.034;2023-04-28T00:06:54;8.90;;;5.75;;
30458;SDS011;17254;50.976;7.034;2023-04-28T00:06:59;8.75;;;5.90;;
30458;SDS011;17254;50.976;7.034;2023-04-28T00:07:06;8.50;;;5.93;;
30458;SDS011;17254;50.976;7.034;2023-04-28T00:07:11;8.38;;;6.10;;
30458;SDS011;17254;50.976;7.034;2023-04-28T00:07:17;8.17;;;6.00;;
30458;SDS011;17254;50.976;7.034;2023-04-28T00:07:23;8.63;;;6.03;;
30458;SDS011;17254;50.976;7.034;2023-04-28T00:07:29;8.65;;;5.93;;
30458;SDS011;17254;50.976;7.034;2023-04-28T00:07:35;8.85;;;5.82;;
30458;SDS011;17254;50.976;7.034;2023-04-28T00:07:41;8.70;;;5.55;;
30458;SDS011;17254;50.976;7.034;2023-04-28T00:07:47;8.95;;;5.53;;
30458;SDS011;17254;50.976;7.034;2023-04-28T00:07:53;8.53;;;5.43;;
30458;SDS011;17254;50.976;7.034;2023-04-28T00:07:59;8.48;;;5.28;;
30458;SDS011;17254;50.976;7.034;2023-04-28T00:08:05;8.02;;;5.40;;
30458;SDS011;17254;50.976;7.034;2023-04-28T00:08:11;7.43;;;5.45;;
30458;SDS011;17254;50.976;7.034;2023-04-28T00:08:18;7.00;;;5.46;;
30458;SDS011;17254;50.976;7.034;2023-04-28T00:08:25;6.90;;;5.50;;
30458;SDS011;17254;50.976;7.034;2023-04-28T00:08:31;6.85;;;5.43;;
30458;SDS011;17254;50.976;7.034;2023-04-28T00:08:37;7.05;;;5.45;;
30458;SDS011;17254;50.976;7.034;2023-04-28T00:08:43;7.00;;;5.45;;
30458;SDS011;17254;50.976;7.034;2023-04-28T00:08:49;7.47;;;5.30;;
30458;SDS011;17254;50.976;7.034;2023-04-28T00:08:55;8.07;;;5.33;;
30458;SDS011;17254;50.976;7.034;2023-04-28T00:09:01;8.30;;;5.30;;
30458;SDS011;17254;50.976;7.034;2023-04-28T00:09:07;8.85;;;5.38;;
30458;SDS011;17254;50.976;7.034;2023-04-28T00:09:15;10.13;;;5.50;;
30458;SDS011;17254;50.976;7.034;2023-04-28T00:09:21;9.90;;;5.50;;
30458;SDS011;17254;50.976;7.034;2023-04-28T00:09:26;9.93;;;5.73;;
30458;SDS011;17254;50.976;7.034;2023-04-28T00:09:32;10.05;;;5.88;;
30458;SDS011;17254;50.976;7.034;2023-04-28T00:09:38;9.55;;;5.75;;
30458;SDS011;17254;50.976;7.034;2023-04-28T00:09:44;8.48;;;5.75;;
30458;SDS011;17254;50.976;7.034;2023-04-28T00:09:50;8.73;;;6.07;;
30458;SDS011;17254;50.976;7.034;2023-04-28T00:09:57;8.90;;;5.93;;
30458;SDS011;17254;50.976;7.034;2023-04-28T00:10:03;8.80;;;5.97;;
30458;SDS011;17254;50.976;7.034;2023-04-28T00:10:10;9.57;;;6.00;;
30458;SDS011;17254;50.976;7.034;2023-04-28T00:10:16;9.77;;;5.88;;
30458;SDS011;17254;50.976;7.034;2023-04-28T00:10:22;10.15;;;5.82;;
30458;SDS011;17254;50.976;7.034;2023-04-28T00:10:28;9.95;;;5.82;;
30458;SDS011;17254;50.976;7.034;2023-04-28T00:10:35;9.43;;;5.90;;
30458;SDS011;17254;50.976;7.034;2023-04-28T00:10:41;9.05;;;5.72;;
30458;SDS011;17254;50.976;7.034;2023-04-28T00:10:47;10.30;;;6.00;;
30458;SDS011;17254;50.976;7.034;2023-04-28T00:10:52;9.18;;;5.90;;
30458;SDS011;17254;50.976;7.034;2023-04-28T00:10:58;8.75;;;5.88;;
30458;SDS011;17254;50.976;7.034;2023-04-28T00:11:07;9.53;;;5.80;;
30458;SDS011;17254;50.976;7.034;2023-04-28T00:11:14;9.49;;;5.90;;
30458;SDS011;17254;50.976;7.034;2023-04-28T00:11:21;8.64;;;5.74;;
30458;SDS011;17254;50.976;7.034;2023-04-28T00:11:26;9.43;;;5.93;;
30458;SDS011;17254;50.976;7.034;2023-04-28T00:11:32;9.20;;;5.85;;
30458;SDS011;17254;50.976;7.034;2023-04-28T00:11:38;8.73;;;5.80;;
30458;SDS011;17254;50.976;7.034;2023-04-28T00:11:44;8.38;;;5.70;;
30458;SDS011;17254;50.976;7.034;2023-04-28T00:11:51;9.04;;;5.78;;
30458;SDS011;17254;50.976;7.034;2023-04-28T00:11:57;9.38;;;5.80;;
30458;SDS011;17254;50.976;7.034;2023-04-28T00:12:04;9.37;;;6.00;;
30458;SDS011;17254;50.976;7.034;2023-04-28T00:12:10;9.50;;;6.10;;
30458;SDS011;17254;50.976;7.034;2023-04-28T00:12:16;9.02;;;6.20;;
30458;SDS011;17254;50.976;7.034;2023-04-28T00:12:22;8.90;;;6.22;;
30458;SDS011;17254;50.976;7.034;2023-04-28T00:12:28;8.38;;;6.15;;
30458;SDS011;17254;50.976;7.034;2023-04-28T00:12:34;8.60;;;6.20;;
30458;SDS011;17254;50.976;7.034;2023-04-28T00:12:40;8.57;;;6.25;;
30458;SDS011;17254;50.976;7.034;2023-04-28T00:12:47;9.00;;;6.13;;
30458;SDS011;17254;50.976;7.034;2023-04-28T00:12:53;8.52;;;5.97;;
30458;SDS011;17254;50.976;7.034;2023-04-28T00:12:59;8.13;;;5.95;;
30458;SDS011;17254;50.976;7.034;2023-04-28T00:13:05;7.80;;;5.97;;
30458;SDS011;17254;50.976;7.034;2023-04-28T00:13:10;7.95;;;5.93;;
30458;SDS011;17254;50.976;7.034;2023-04-28T00:13:16;7.60;;;5.87;;
30458;SDS011;17254;50.976;7.034;2023-04-28T00:13:22;8.27;;;6.05;;
30458;SDS011;17254;50.976;7.034;2023-04-28T00:13:28;8.93;;;6.05;;
30458;SDS011;17254;50.976;7.034;2023-04-28T00:13:34;9.05;;;6.03;;
30458;SDS011;17254;50.976;7.034;2023-04-28T00:13:40;8.88;;;5.80;;
30458;SDS011;17254;50.976;7.034;2023-04-28T00:13:46;8.63;;;5.90;;
30458;SDS011;17254;50.976;7.034;2023-04-28T00:13:52;8.00;;;5.80;;
30458;SDS011;17254;50.976;7.034;2023-04-28T00:13:58;7.63;;;5.83;;
30458;SDS011;17254;50.976;7.034;2023-04-28T00:14:04;8.07;;;6.03;;
30458;SDS011;17254;50.976;7.034;2023-04-28T00:14:10;8.45;;;5.97;;
30458;SDS011;17254;50.976;7.034;2023-04-28T00:14:16;8.75;;;5.95;;
30458;SDS011;17254;50.976;7.034;2023-04-28T00:14:23;9.30;;;6.10;;
30458;SDS011;17254;50.976;7.034;2023-04-28T00:14:29;9.60;;;6.10;;
30458;SDS011;17254;50.976;7.034;2023-04-28T00:14:35;8.63;;;5.83;;
30458;SDS011;17254;50.976;7.034;2023-04-28T00:14:40;8.50;;;6.03;;
30458;SDS011;17254;50.976;7.034;2023-04-28T00:14:46;8.63;;;6.15;;
30458;SDS011;17254;50.976;7.034;2023-04-28T00:14:52;8.67;;;6.07;;
30458;SDS011;17254;50.976;7.034;2023-04-28T00:14:58;8.23;;;6.03;;
30458;SDS011;17254;50.976;7.034;2023-04-28T00:15:05;8.70;;;6.00;;
30458;SDS011;17254;50.976;7.034;2023-04-28T00:15:11;8.67;;;6.00;;
30458;SDS011;17254;50.976;7.034;2023-04-28T00:15:17;8.80;;;5.93;;
30458;SDS011;17254;50.976;7.034;2023-04-28T00:15:23;8.48;;;6.00;;
30458;SDS011;17254;50.976;7.034;2023-04-28T00:15:29;8.70;;;5.93;;
30458;SDS011;17254;50.976;7.034;2023-04-28T00:15:35;9.15;;;5.90;;
30458;SDS011;17254;50.976;7.034;2023-04-28T00:15:41;9.27;;;5.73;;
30458;SDS011;17254;50.976;7.034;2023-04-28T00:15:48;9.05;;;5.60;;
30458;SDS011;17254;50.976;7.034;2023-04-28T00:15:54;8.86;;;5.50;;
30458;SDS011;17254;50.976;7.034;2023-04-28T00:16:01;9.04;;;5.64;;
30458;SDS011;17254;50.976;7.034;2023-04-28T00:16:07;8.52;;;5.65;;
30458;SDS011;17254;50.976;7.034;2023-04-28T00:16:12;7.83;;;5.77;;
30458;SDS011;17254;50.976;7.034;2023-04-28T00:16:18;7.72;;;5.82;;
30458;SDS011;17254;50.976;7.034;2023-04-28T00:16:24;7.75;;;5.72;;
30458;SDS011;17254;50.976;7.034;2023-04-28T00:16:30;7.63;;;5.77;;
30458;SDS011;17254;50.976;7.034;2023-04-28T00:16:36;8.38;;;6.03;;
30458;SDS011;17254;50.976;7.034;2023-04-28T00:16:42;8.65;;;5.95;;
30458;SDS011;17254;50.976;7.034;2023-04-28T00:16:48;9.02;;;5.95;;
30458;SDS011;17254;50.976;7.034;2023-04-28T00:16:54;8.70;;;6.00;;
30458;SDS011;17254;50.976;7.034;2023-04-28T00:17:02;9.60;;;5.87;;
30458;SDS011;17254;50.976;7.034;2023-04-28T00:17:08;9.30;;;5.82;;
30458;SDS011;17254;50.976;7.034;2023-04-28T00:17:14;10.07;;;6.05;;
30458;SDS011;17254;50.976;7.034;2023-04-28T00:17:20;10.02;;;6.13;;
30458;SDS011;17254;50.976;7.034;2023-04-28T00:17:26;9.73;;;6.07;;
30458;SDS011;17254;50.976;7.034;2023-04-28T00:17:32;9.27;;;5.97;;
30458;SDS011;17254;50.976;7.034;2023-04-28T00:17:39;8.97;;;6.20;;
30458;SDS011;17254;50.976;7.034;2023-04-28T00:17:45;8.47;;;6.00;;
30458;SDS011;17254;50.976;7.034;2023-04-28T00:17:51;8.85;;;5.95;;
30458;SDS011;17254;50.976;7.034;2023-04-28T00:17:57;9.40;;;6.03;;
30458;SDS011;17254;50.976;7.034;2023-04-28T00:18:03;8.93;;;6.07;;
30458;SDS011;17254;50.976;7.034;2023-04-28T00:18:09;8.82;;;6.05;;
30458;SDS011;17254;50.976;7.034;2023-04-28T00:18:15;8.80;;;6.20;;
30458;SDS011;17254;50.976;7.034;2023-04-28T00:18:21;8.32;;;6.13;;
30458;SDS011;17254;50.976;7.034;2023-04-28T00:18:27;7.70;;;6.10;;
30458;SDS011;17254;50.976;7.034;2023-04-28T00:18:33;8.30;;;6.27;;
30458;SDS011;17254;50.976;7.034;2023-04-28T00:18:39;8.07;;;6.13;;
30458;SDS011;17254;50.976;7.034;2023-04-28T00:18:45;8.18;;;6.10;;
30458;SDS011;17254;50.976;7.034;2023-04-28T00:18:51;9.00;;;6.18;;
30458;SDS011;17254;50.976;7.034;2023-04-28T00:18:58;9.03;;;6.07;;
30458;SDS011;17254;50.976;7.034;2023-04-28T00:19:04;9.05;;;6.03;;
30458;SDS011;17254;50.976;7.034;2023-04-28T00:19:10;9.80;;;6.13;;
30458;SDS011;17254;50.976;7.034;2023-04-28T00:19:16;9.88;;;5.97;;
30458;SDS011;17254;50.976;7.034;2023-04-28T00:19:22;8.80;;;5.90;;
30458;SDS011;17254;50.976;7.034;2023-04-28T00:19:28;8.95;;;5.90;;
30458;SDS011;17254;50.976;7.034;2023-04-28T00:19:34;8.56;;;5.80;;
30458;SDS011;17254;50.976;7.034;2023-04-28T00:19:40;7.90;;;5.60;;
30458;SDS011;17254;50.976;7.034;2023-04-28T00:19:46;8.07;;;5.60;;
30458;SDS011;17254;50.976;7.034;2023-04-28T00:19:52;8.45;;;5.60;;
30458;SDS011;17254;50.976;7.034;2023-04-28T00:19:58;8.38;;;5.68;;
30458;SDS011;17254;50.976;7.034;2023-04-28T00:20:04;8.48;;;5.68;;
30458;SDS011;17254;50.976;7.034;2023-04-28T00:20:11;8.50;;;5.76;;
30458;SDS011;17254;50.976;7.034;2023-04-28T00:20:17;8.30;;;5.93;;
30458;SDS011;17254;50.976;7.034;2023-04-28T00:20:23;7.95;;;5.85;;
30458;SDS011;17254;50.976;7.034;2023-04-28T00:20:30;8.27;;;5.97;;
30458;SDS011;17254;50.976;7.034;2023-04-28T00:20:36;7.93;;;5.93;;
30458;SDS011;17254;50.976;7.034;2023-04-28T00:20:42;7.97;;;5.80;;
30458;SDS011;17254;50.976;7.034;2023-04-28T00:20:48;8.20;;;5.88;;
30458;SDS011;17254;50.976;7.034;2023-04-28T00:20:54;8.48;;;6.10;;
30458;SDS011;17254;50.976;7.034;2023-04-28T00:21:00;7.80;;;6.00;;
30458;SDS011;17254;50.976;7.034;2023-04-28T00:21:06;7.82;;;5.97;;
30458;SDS011;17254;50.976;7.034;2023-04-28T00:21:12;7.57;;;6.00;;
30458;SDS011;17254;50.976;7.034;2023-04-28T00:21:18;8.13;;;6.10;;
30458;SDS011;17254;50.976;7.034;2023-04-28T00:21:25;7.63;;;5.85;;
30458;SDS011;17254;50.976;7.034;2023-04-28T00:21:34;8.17;;;6.07;;
30458;SDS011;17254;50.976;7.034;2023-04-28T00:21:40;8.60;;;6.10;;
30458;SDS011;17254;50.976;7.034;2023-04-28T00:21:45;8.55;;;6.00;;
30458;SDS011;17254;50.976;7.034;2023-04-28T00:21:51;8.77;;;6.00;;
30458;SDS011;17254;50.976;7.034;2023-04-28T00:21:57;9.02;;;5.97;;
30458;SDS011;17254;50.976;7.034;2023-04-28T00:22:03;9.07;;;5.97;;
30458;SDS011;17254;50.976;7.034;2023-04-28T00:22:10;8.83;;;6.10;;
30458;SDS011;17254;50.976;7.034;2023-04-28T00:22:17;8.50;;;6.18;;
30458;SDS011;17254;50.976;7.034;2023-04-28T00:22:23;8.27;;;6.18;;
30458;SDS011;17254;50.976;7.034;2023-04-28T00:22:29;8.40;;;6.28;;
30458;SDS011;17254;50.976;7.034;2023-04-28T00:22:35;8.33;;;6.17;;
30458;SDS011;17254;50.976;7.034;2023-04-28T00:22:41;8.15;;;5.97;;
30458;SDS011;17254;50.976;7.034;2023-04-28T00:22:47;8.38;;;5.90;;
30458;SDS011;17254;50.976;7.034;2023-04-28T00:22:53;7.90;;;5.90;;
30458;SDS011;17254;50.976;7.034;2023-04-28T00:22:59;7.57;;;5.93;;
30458;SDS011;17254;50.976;7.034;2023-04-28T00:23:05;8.07;;;5.88;;
30458;SDS011;17254;50.976;7.034;2023-04-28T00:23:11;8.77;;;6.05;;
30458;SDS011;17254;50.976;7.034;2023-04-28T00:23:17;8.60;;;6.07;;
30458;SDS011;17254;50.976;7.034;2023-04-28T00:23:23;8.43;;;5.97;;
30458;SDS011;17254;50.976;7.034;2023-04-28T00:23:29;8.52;;;5.70;;
30458;SDS011;17254;50.976;7.034;2023-04-28T00:23:35;7.83;;;5.70;;
30458;SDS011;17254;50.976;7.034;2023-04-28T00:23:41;7.28;;;5.60;;
30458;SDS011;17254;50.976;7.034;2023-04-28T00:23:47;7.10;;;5.53;;
30458;SDS011;17254;50.976;7.034;2023-04-28T00:23:53;7.15;;;5.53;;
30458;SDS011;17254;50.976;7.034;2023-04-28T00:23:59;7.03;;;5.60;;
30458;SDS011;17254;50.976;7.034;2023-04-28T00:24:05;6.63;;;5.47;;
30458;SDS011;17254;50.976;7.034;2023-04-28T00:24:11;7.07;;;5.37;;
30458;SDS011;17254;50.976;7.034;2023-04-28T00:24:17;7.30;;;5.53;;
30458;SDS011;17254;50.976;7.034;2023-04-28T00:24:23;7.47;;;5.60;;
30458;SDS011;17254;50.976;7.034;2023-04-28T00:24:29;7.95;;;5.65;;
30458;SDS011;17254;50.976;7.034;2023-04-28T00:24:36;8.48;;;5.60;;
30458;SDS011;17254;50.976;7.034;2023-04-28T00:24:45;8.37;;;5.80;;
30458;SDS011;17254;50.976;7.034;2023-04-28T00:24:51;8.65;;;5.72;;
30458;SDS011;17254;50.976;7.034;2023-04-28T00:24:57;8.43;;;5.70;;
30458;SDS011;17254;50.976;7.034;2023-04-28T00:25:03;7.60;;;5.78;;
30458;SDS011;17254;50.976;7.034;2023-04-28T00:25:10;7.80;;;5.83;;
30458;SDS011;17254;50.976;7.034;2023-04-28T00:25:16;8.27;;;5.80;;
30458;SDS011;17254;50.976;7.034;2023-04-28T00:25:22;8.10;;;5.90;;
30458;SDS011;17254;50.976;7.034;2023-04-28T00:25:28;8.10;;;5.78;;
30458;SDS011;17254;50.976;7.034;2023-04-28T00:25:34;8.27;;;5.90;;
30458;SDS011;17254;50.976;7.034;2023-04-28T00:25:40;8.17;;;5.93;;
30458;SDS011;17254;50.976;7.034;2023-04-28T00:25:49;7.60;;;5.82;;
30458;SDS011;17254;50.976;7.034;2023-04-28T00:25:56;7.55;;;5.90;;
30458;SDS011;17254;50.976;7.034;2023-04-28T00:26:02;7.53;;;5.85;;
30458;SDS011;17254;50.976;7.034;2023-04-28T00:26:08;8.68;;;5.80;;
30458;SDS011;17254;50.976;7.034;2023-04-28T00:26:14;9.02;;;6.15;;
30458;SDS011;17254;50.976;7.034;2023-04-28T00:26:21;9.37;;;6.00;;
30458;SDS011;17254;50.976;7.034;2023-04-28T00:26:29;10.37;;;6.03;;
30458;SDS011;17254;50.976;7.034;2023-04-28T00:26:35;10.97;;;6.17;;
30458;SDS011;17254;50.976;7.034;2023-04-28T00:26:40;10.43;;;6.00;;
30458;SDS011;17254;50.976;7.034;2023-04-28T00:26:46;10.52;;;5.70;;
30458;SDS011;17254;50.976;7.034;2023-04-28T00:26:52;10.23;;;5.93;;
30458;SDS011;17254;50.976;7.034;2023-04-28T00:26:58;9.63;;;6.07;;
30458;SDS011;17254;50.976;7.034;2023-04-28T00:27:05;8.50;;;6.06;;
30458;SDS011;17254;50.976;7.034;2023-04-28T00:27:11;8.30;;;6.03;;
30458;SDS011;17254;50.976;7.034;2023-04-28T00:27:17;8.43;;;5.90;;
30458;SDS011;17254;50.976;7.034;2023-04-28T00:27:24;8.22;;;5.92;;
30458;SDS011;17254;50.976;7.034;2023-04-28T00:27:31;7.87;;;5.73;;
30458;SDS011;17254;50.976;7.034;2023-04-28T00:27:37;7.72;;;5.72;;
30458;SDS011;17254;50.976;7.034;2023-04-28T00:27:43;7.50;;;5.85;;
30458;SDS011;17254;50.976;7.034;2023-04-28T00:27:49;9.15;;;5.78;;
30458;SDS011;17254;50.976;7.034;2023-04-28T00:27:55;9.48;;;5.60;;
30458;SDS011;17254;50.976;7.034;2023-04-28T00:28:02;9.58;;;5.80;;
30458;SDS011;17254;50.976;7.034;2023-04-28T00:28:08;9.85;;;5.82;;
30458;SDS011;17254;50.976;7.034;2023-04-28T00:28:13;9.47;;;5.83;;
30458;SDS011;17254;50.976;7.034;2023-04-28T00:28:19;7.53;;;5.93;;
30458;SDS011;17254;50.976;7.034;2023-04-28T00:28:25;7.65;;;5.97;;
30458;SDS011;17254;50.976;7.034;2023-04-28T00:28:31;7.97;;;5.82;;
30458;SDS011;17254;50.976;7.034;2023-04-28T00:28:37;7.97;;;5.68;;
30458;SDS011;17254;50.976;7.034;2023-04-28T00:28:43;8.82;;;5.72;;
30458;SDS011;17254;50.976;7.034;2023-04-28T00:28:49;9.50;;;5.80;;
30458;SDS011;17254;50.976;7.034;2023-04-28T00:28:55;9.85;;;5.93;;
30458;SDS011;17254;50.976;7.034;2023-04-28T00:29:01;9.60;;;5.80;;
30458;SDS011;17254;50.976;7.034;2023-04-28T00:29:07;9.73;;;5.93;;
30458;SDS011;17254;50.976;7.034;2023-04-28T00:29:13;9.10;;;5.87;;
30458;SDS011;17254;50.976;7.034;2023-04-28T00:29:19;8.98;;;5.78;;
30458;SDS011;17254;50.976;7.034;2023-04-28T00:29:25;8.18;;;5.65;;
30458;SDS011;17254;50.976;7.034;2023-04-28T00:29:32;7.90;;;5.92;;
30458;SDS011;17254;50.976;7.034;2023-04-28T00:29:38;7.65;;;6.05;;
30458;SDS011;17254;50.976;7.034;2023-04-28T00:29:44;7.75;;;6.20;;
30458;SDS011;17254;50.976;7.034;2023-04-28T00:29:51;8.03;;;6.33;;
30458;SDS011;17254;50.976;7.034;2023-04-28T00:29:58;8.34;;;6.16;;
30458;SDS011;17254;50.976;7.034;2023-04-28T00:30:04;8.40;;;6.07;;
30458;SDS011;17254;50.976;7.034;2023-04-28T00:30:11;9.08;;;5.92;;
30458;SDS011;17254;50.976;7.034;2023-04-28T00:30:17;8.52;;;5.78;;
30458;SDS011;17254;50.976;7.034;2023-04-28T00:30:23;8.03;;;5.80;;
30458;SDS011;17254;50.976;7.034;2023-04-28T00:30:29;8.25;;;5.78;;
30458;SDS011;17254;50.976;7.034;2023-04-28T00:30:35;8.88;;;5.70;;
30458;SDS011;17254;50.976;7.034;2023-04-28T00:30:41;8.52;;;5.63;;
30458;SDS011;17254;50.976;7.034;2023-04-28T00:30:47;8.38;;;5.50;;
30458;SDS011;17254;50.976;7.034;2023-04-28T00:30:53;8.00;;;5.40;;
30458;SDS011;17254;50.976;7.034;2023-04-28T00:30:59;9.32;;;5.50;;
30458;SDS011;17254;50.976;7.034;2023-04-28T00:31:08;8.48;;;5.40;;
30458;SDS011;17254;50.976;7.034;2023-04-28T00:31:15;8.76;;;5.54;;
30458;SDS011;17254;50.976;7.034;2023-04-28T00:31:22;9.42;;;5.72;;
30458;SDS011;17254;50.976;7.034;2023-04-28T00:31:28;9.50;;;6.10;;
30458;SDS011;17254;50.976;7.034;2023-04-28T00:31:34;9.20;;;6.27;;
30458;SDS011;17254;50.976;7.034;2023-04-28T00:31:40;9.63;;;6.32;;
30458;SDS011;17254;50.976;7.034;2023-04-28T00:31:46;10.07;;;6.25;;
30458;SDS011;17254;50.976;7.034;2023-04-28T00:31:52;10.80;;;6.35;;
30458;SDS011;17254;50.976;7.034;2023-04-28T00:31:58;9.45;;;5.90;;
30458;SDS011;17254;50.976;7.034;2023-04-28T00:32:04;9.43;;;5.82;;
30458;SDS011;17254;50.976;7.034;2023-04-28T00:32:10;9.47;;;5.93;;
30458;SDS011;17254;50.976;7.034;2023-04-28T00:32:17;9.02;;;5.98;;
30458;SDS011;17254;50.976;7.034;2023-04-28T00:32:23;8.80;;;5.70;;
30458;SDS011;17254;50.976;7.034;2023-04-28T00:32:29;9.07;;;5.60;;
30458;SDS011;17254;50.976;7.034;2023-04-28T00:32:35;9.50;;;5.55;;
30458;SDS011;17254;50.976;7.034;2023-04-28T00:32:41;8.75;;;5.43;;
30458;SDS011;17254;50.976;7.034;2023-04-28T00:32:47;8.10;;;5.20;;
30458;SDS011;17254;50.976;7.034;2023-04-28T00:32:53;8.10;;;5.45;;
30458;SDS011;17254;50.976;7.034;2023-04-28T00:33:00;8.68;;;5.88;;
30458;SDS011;17254;50.976;7.034;2023-04-28T00:33:06;8.90;;;5.90;;
30458;SDS011;17254;50.976;7.034;2023-04-28T00:33:12;10.00;;;5.84;;
30458;SDS011;17254;50.976;7.034;2023-04-28T00:33:18;10.07;;;5.97;;
30458;SDS011;17254;50.976;7.034;2023-04-28T00:33:24;9.55;;;5.90;;
30458;SDS011;17254;50.976;7.034;2023-04-28T00:33:30;8.93;;;5.78;;
30458;SDS011;17254;50.976;7.034;2023-04-28T00:33:36;9.18;;;6.15;;
30458;SDS011;17254;50.976;7.034;2023-04-28T00:33:42;9.20;;;6.70;;
30458;SDS011;17254;50.976;7.034;2023-04-28T00:33:48;9.23;;;6.70;;
30458;SDS011;17254;50.976;7.034;2023-04-28T00:33:54;9.18;;;6.50;;
30458;SDS011;17254;50.976;7.034;2023-04-28T00:34:00;9.63;;;6.47;;
30458;SDS011;17254;50.976;7.034;2023-04-28T00:34:06;9.55;;;6.03;;
30458;SDS011;17254;50.976;7.034;2023-04-28T00:34:13;8.66;;;5.62;;
30458;SDS011;17254;50.976;7.034;2023-04-28T00:34:19;8.52;;;5.55;;
30458;SDS011;17254;50.976;7.034;2023-04-28T00:34:25;8.80;;;5.63;;
30458;SDS011;17254;50.976;7.034;2023-04-28T00:34:31;9.10;;;5.78;;
30458;SDS011;17254;50.976;7.034;2023-04-28T00:34:37;9.04;;;5.82;;
30458;SDS011;17254;50.976;7.034;2023-04-28T00:34:43;9.77;;;5.63;;
30458;SDS011;17254;50.976;7.034;2023-04-28T00:34:49;10.07;;;5.60;;
30458;SDS011;17254;50.976;7.034;2023-04-28T00:34:56;9.98;;;5.60;;
30458;SDS011;17254;50.976;7.034;2023-04-28T00:35:02;8.38;;;5.40;;
30458;SDS011;17254;50.976;7.034;2023-04-28T00:35:08;7.85;;;5.32;;
30458;SDS011;17254;50.976;7.034;2023-04-28T00:35:14;7.13;;;5.40;;
30458;SDS011;17254;50.976;7.034;2023-04-28T00:35:20;6.60;;;5.50;;
30458;SDS011;17254;50.976;7.034;2023-04-28T00:35:26;6.47;;;5.53;;
30458;SDS011;17254;50.976;7.034;2023-04-28T00:35:32;6.93;;;5.63;;
30458;SDS011;17254;50.976;7.034;2023-04-28T00:35:38;7.18;;;5.95;;
30458;SDS011;17254;50.976;7.034;2023-04-28T00:35:44;6.95;;;5.97;;
30458;SDS011;17254;50.976;7.034;2023-04-28T00:35:57;7.20;;;6.02;;
30458;SDS011;17254;50.976;7.034;2023-04-28T00:36:04;7.71;;;6.09;;
30458;SDS011;17254;50.976;7.034;2023-04-28T00:36:10;8.02;;;5.82;;
30458;SDS011;17254;50.976;7.034;2023-04-28T00:36:16;8.67;;;5.97;;
30458;SDS011;17254;50.976;7.034;2023-04-28T00:36:22;8.88;;;5.93;;
30458;SDS011;17254;50.976;7.034;2023-04-28T00:36:28;8.98;;;5.78;;
30458;SDS011;17254;50.976;7.034;2023-04-28T00:36:38;9.82;;;6.00;;
30458;SDS011;17254;50.976;7.034;2023-04-28T00:36:44;9.68;;;6.08;;
30458;SDS011;17254;50.976;7.034;2023-04-28T00:36:49;9.60;;;6.00;;
30458;SDS011;17254;50.976;7.034;2023-04-28T00:36:56;9.23;;;6.07;;
30458;SDS011;17254;50.976;7.034;2023-04-28T00:37:02;9.05;;;6.18;;
30458;SDS011;17254;50.976;7.034;2023-04-28T00:37:08;8.57;;;6.17;;
30458;SDS011;17254;50.976;7.034;2023-04-28T00:37:14;9.23;;;6.27;;
30458;SDS011;17254;50.976;7.034;2023-04-28T00:37:21;9.40;;;6.28;;
30458;SDS011;17254;50.976;7.034;2023-04-28T00:37:27;10.38;;;6.43;;